Terminal Aerodrome Forecast
Issued by NWS Mt. Holly, NJ

Home | Current Version | Previous Version | Text Only | Print | Product List | Glossary On
Versions: 1 2 3 4 5 6 7 8 9 10 11 12 13 14 15 16 17 18 19 20 21 22 23 24 25
000
FTUS41 KPHI 260155 AAA
TAFPHL
TAF AMD
KPHL 260155Z 2602/2706 06012G20KT 6SM -SHRA BR OVC007
      TEMPO 2602/2604 3SM -SHRA BR OVC005
     FM260400 04010KT 5SM BR VCSH OVC005
     FM260700 04008KT 3SM BR OVC005
     FM261600 03005KT 5SM BR OVC012
     FM261800 36005KT P6SM BKN025
     FM270100 VRB03KT P6SM BKN020=

USA.gov is the U.S. government's official web portal to all federal, state and local government web resources and services.